sensor_id;sensor_type;location;lat;lon;timestamp;pressure;altitude;pressure_sealevel;temperature;humidity
14393;BME280;7281;42.678;23.372;2022-12-20T00:01:27;96960.94;;;2.71;52.68
14393;BME280;7281;42.678;23.372;2022-12-20T00:03:58;96960.31;;;2.85;52.88
14393;BME280;7281;42.678;23.372;2022-12-20T00:06:25;96950.25;;;2.74;52.62
14393;BME280;7281;42.678;23.372;2022-12-20T00:08:57;96966.41;;;2.68;52.85
14393;BME280;7281;42.678;23.372;2022-12-20T00:11:25;96967.50;;;2.58;52.71
14393;BME280;7281;42.678;23.372;2022-12-20T00:13:52;96980.66;;;2.72;52.81
14393;BME280;7281;42.678;23.372;2022-12-20T00:16:22;96970.41;;;2.96;52.00
14393;BME280;7281;42.678;23.372;2022-12-20T00:18:51;96977.78;;;2.83;52.14
14393;BME280;7281;42.678;23.372;2022-12-20T00:21:18;96965.06;;;2.90;51.57
14393;BME280;7281;42.678;23.372;2022-12-20T00:23:45;96985.94;;;2.96;51.56
14393;BME280;7281;42.678;23.372;2022-12-20T00:26:18;96986.22;;;2.85;51.46
14393;BME280;7281;42.678;23.372;2022-12-20T00:28:46;96980.09;;;2.86;51.57
14393;BME280;7281;42.678;23.372;2022-12-20T00:31:15;96987.19;;;2.84;51.99
14393;BME280;7281;42.678;23.372;2022-12-20T00:33:47;96979.38;;;2.76;51.81
14393;BME280;7281;42.678;23.372;2022-12-20T00:36:15;96988.97;;;2.50;51.81
14393;BME280;7281;42.678;23.372;2022-12-20T00:38:47;96978.72;;;2.66;51.43
14393;BME280;7281;42.678;23.372;2022-12-20T00:41:17;96980.22;;;2.77;51.15
14393;BME280;7281;42.678;23.372;2022-12-20T00:43:44;96974.59;;;2.89;50.86
14393;BME280;7281;42.678;23.372;2022-12-20T00:46:12;96971.66;;;2.84;50.91
14393;BME280;7281;42.678;23.372;2022-12-20T00:48:40;96956.13;;;2.84;50.75
14393;BME280;7281;42.678;23.372;2022-12-20T00:51:10;96963.41;;;2.89;50.54
14393;BME280;7281;42.678;23.372;2022-12-20T00:53:38;96974.91;;;2.94;50.42
14393;BME280;7281;42.678;23.372;2022-12-20T00:56:06;96972.38;;;3.10;50.29
14393;BME280;7281;42.678;23.372;2022-12-20T00:58:36;96984.31;;;2.95;50.37
14393;BME280;7281;42.678;23.372;2022-12-20T01:01:05;96972.94;;;2.88;50.43
14393;BME280;7281;42.678;23.372;2022-12-20T01:03:33;96971.63;;;2.76;50.39
14393;BME280;7281;42.678;23.372;2022-12-20T01:06:01;96980.41;;;2.91;50.45
14393;BME280;7281;42.678;23.372;2022-12-20T01:08:29;96983.63;;;2.85;50.58
14393;BME280;7281;42.678;23.372;2022-12-20T01:11:17;96978.00;;;2.90;50.25
14393;BME280;7281;42.678;23.372;2022-12-20T01:13:47;96977.91;;;2.74;50.81
14393;BME280;7281;42.678;23.372;2022-12-20T01:16:26;96974.97;;;2.61;50.60
14393;BME280;7281;42.678;23.372;2022-12-20T01:18:54;96975.50;;;2.72;50.48
14393;BME280;7281;42.678;23.372;2022-12-20T01:21:23;96962.47;;;2.98;50.19
14393;BME280;7281;42.678;23.372;2022-12-20T01:23:51;96959.00;;;2.73;50.36
14393;BME280;7281;42.678;23.372;2022-12-20T01:26:20;96957.69;;;2.77;50.00
14393;BME280;7281;42.678;23.372;2022-12-20T01:28:51;96963.19;;;2.74;50.23
14393;BME280;7281;42.678;23.372;2022-12-20T01:31:19;96954.56;;;2.58;50.15
14393;BME280;7281;42.678;23.372;2022-12-20T01:33:47;96944.72;;;2.61;50.33
14393;BME280;7281;42.678;23.372;2022-12-20T01:36:18;96947.81;;;2.31;50.36
14393;BME280;7281;42.678;23.372;2022-12-20T01:38:46;96952.91;;;2.15;50.59
14393;BME280;7281;42.678;23.372;2022-12-20T01:41:17;96946.28;;;2.46;50.29
14393;BME280;7281;42.678;23.372;2022-12-20T01:44:06;96947.56;;;2.50;50.41
14393;BME280;7281;42.678;23.372;2022-12-20T01:46:52;96943.66;;;2.38;50.10
14393;BME280;7281;42.678;23.372;2022-12-20T01:54:35;96937.16;;;2.76;49.66
14393;BME280;7281;42.678;23.372;2022-12-20T01:57:09;96926.31;;;2.72;49.93
14393;BME280;7281;42.678;23.372;2022-12-20T01:59:40;96931.75;;;2.53;50.22
14393;BME280;7281;42.678;23.372;2022-12-20T02:02:10;96935.13;;;2.46;50.30
14393;BME280;7281;42.678;23.372;2022-12-20T02:04:38;96914.41;;;2.46;50.00
14393;BME280;7281;42.678;23.372;2022-12-20T02:07:05;96910.06;;;2.54;49.71
14393;BME280;7281;42.678;23.372;2022-12-20T02:09:36;96915.84;;;2.48;50.12
14393;BME280;7281;42.678;23.372;2022-12-20T02:31:12;96925.72;;;2.11;50.73
14393;BME280;7281;42.678;23.372;2022-12-20T02:33:42;96918.53;;;2.23;50.41
14393;BME280;7281;42.678;23.372;2022-12-20T02:36:13;96918.00;;;2.19;50.42
14393;BME280;7281;42.678;23.372;2022-12-20T02:38:41;96919.31;;;2.23;50.18
14393;BME280;7281;42.678;23.372;2022-12-20T02:41:25;96919.06;;;2.00;50.74
14393;BME280;7281;42.678;23.372;2022-12-20T02:43:59;96914.25;;;2.14;50.20
14393;BME280;7281;42.678;23.372;2022-12-20T02:46:47;96905.34;;;2.08;50.33
14393;BME280;7281;42.678;23.372;2022-12-20T02:49:19;96907.16;;;2.16;50.39
14393;BME280;7281;42.678;23.372;2022-12-20T02:51:49;96910.16;;;2.03;50.93
14393;BME280;7281;42.678;23.372;2022-12-20T02:54:18;96901.19;;;2.15;50.79
14393;BME280;7281;42.678;23.372;2022-12-20T02:56:49;96895.69;;;2.18;51.08
14393;BME280;7281;42.678;23.372;2022-12-20T02:59:24;96899.88;;;2.11;51.23
14393;BME280;7281;42.678;23.372;2022-12-20T03:01:53;96898.50;;;2.33;51.11
14393;BME280;7281;42.678;23.372;2022-12-20T03:04:25;96895.97;;;3.23;49.12
14393;BME280;7281;42.678;23.372;2022-12-20T03:09:37;96900.94;;;2.34;50.59
14393;BME280;7281;42.678;23.372;2022-12-20T03:12:05;96897.09;;;2.38;50.72
14393;BME280;7281;42.678;23.372;2022-12-20T03:14:34;96892.06;;;3.02;49.49
14393;BME280;7281;42.678;23.372;2022-12-20T03:17:06;96883.50;;;3.26;48.25
14393;BME280;7281;42.678;23.372;2022-12-20T03:19:33;96889.00;;;2.99;48.69
14393;BME280;7281;42.678;23.372;2022-12-20T03:22:00;96891.69;;;2.73;49.10
14393;BME280;7281;42.678;23.372;2022-12-20T03:24:30;96887.34;;;2.32;50.77
14393;BME280;7281;42.678;23.372;2022-12-20T03:26:59;96880.25;;;2.34;50.47
14393;BME280;7281;42.678;23.372;2022-12-20T03:29:26;96886.34;;;2.25;50.70
14393;BME280;7281;42.678;23.372;2022-12-20T03:31:53;96886.00;;;1.86;51.80
14393;BME280;7281;42.678;23.372;2022-12-20T03:34:20;96877.81;;;1.99;51.35
14393;BME280;7281;42.678;23.372;2022-12-20T03:36:47;96887.22;;;2.00;50.83
14393;BME280;7281;42.678;23.372;2022-12-20T03:39:15;96894.25;;;1.90;51.60
14393;BME280;7281;42.678;23.372;2022-12-20T03:41:42;96889.88;;;2.16;51.09
14393;BME280;7281;42.678;23.372;2022-12-20T03:44:11;96885.63;;;2.07;50.96
14393;BME280;7281;42.678;23.372;2022-12-20T03:46:38;96884.28;;;1.95;50.90
14393;BME280;7281;42.678;23.372;2022-12-20T03:49:06;96883.88;;;1.82;51.52
14393;BME280;7281;42.678;23.372;2022-12-20T03:51:40;96879.22;;;1.85;51.29
14393;BME280;7281;42.678;23.372;2022-12-20T03:54:07;96884.78;;;1.98;51.21
14393;BME280;7281;42.678;23.372;2022-12-20T03:56:55;96882.66;;;1.94;51.02
14393;BME280;7281;42.678;23.372;2022-12-20T03:59:21;96880.31;;;1.83;51.27
14393;BME280;7281;42.678;23.372;2022-12-20T04:01:48;96871.03;;;1.98;50.90
14393;BME280;7281;42.678;23.372;2022-12-20T04:04:16;96862.59;;;1.88;51.09
14393;BME280;7281;42.678;23.372;2022-12-20T04:06:43;96868.66;;;1.79;51.05
14393;BME280;7281;42.678;23.372;2022-12-20T04:09:10;96877.19;;;1.46;51.45
14393;BME280;7281;42.678;23.372;2022-12-20T04:11:45;96881.56;;;1.71;51.05
14393;BME280;7281;42.678;23.372;2022-12-20T04:14:13;96874.13;;;1.50;51.70
14393;BME280;7281;42.678;23.372;2022-12-20T04:16:42;96872.88;;;1.54;51.05
14393;BME280;7281;42.678;23.372;2022-12-20T04:19:09;96870.41;;;1.70;51.48
14393;BME280;7281;42.678;23.372;2022-12-20T04:21:44;96864.47;;;1.78;51.08
14393;BME280;7281;42.678;23.372;2022-12-20T04:24:13;96869.47;;;1.54;51.39
14393;BME280;7281;42.678;23.372;2022-12-20T04:26:44;96870.91;;;1.74;51.39
14393;BME280;7281;42.678;23.372;2022-12-20T04:29:12;96873.63;;;1.72;51.48
14393;BME280;7281;42.678;23.372;2022-12-20T04:31:40;96866.88;;;1.71;51.16
14393;BME280;7281;42.678;23.372;2022-12-20T04:34:08;96866.19;;;1.69;50.90
14393;BME280;7281;42.678;23.372;2022-12-20T04:36:35;96866.66;;;1.65;50.93
14393;BME280;7281;42.678;23.372;2022-12-20T04:39:06;96845.97;;;1.39;51.40
14393;BME280;7281;42.678;23.372;2022-12-20T04:41:45;96863.09;;;1.40;51.26
14393;BME280;7281;42.678;23.372;2022-12-20T04:44:12;96862.59;;;1.37;51.44
14393;BME280;7281;42.678;23.372;2022-12-20T04:46:39;96855.00;;;1.18;51.32
14393;BME280;7281;42.678;23.372;2022-12-20T04:49:10;96867.94;;;1.18;51.88
14393;BME280;7281;42.678;23.372;2022-12-20T04:51:40;96861.72;;;1.28;52.02
14393;BME280;7281;42.678;23.372;2022-12-20T04:54:09;96867.34;;;1.24;51.68
14393;BME280;7281;42.678;23.372;2022-12-20T04:56:44;96868.13;;;1.42;51.34
14393;BME280;7281;42.678;23.372;2022-12-20T04:59:16;96866.81;;;1.20;51.78
14393;BME280;7281;42.678;23.372;2022-12-20T05:01:46;96866.00;;;1.20;51.62
14393;BME280;7281;42.678;23.372;2022-12-20T05:04:21;96865.09;;;1.29;52.01
14393;BME280;7281;42.678;23.372;2022-12-20T05:06:47;96864.81;;;1.32;51.89
14393;BME280;7281;42.678;23.372;2022-12-20T05:09:14;96868.66;;;1.28;51.32
14393;BME280;7281;42.678;23.372;2022-12-20T05:11:41;96864.41;;;1.01;52.24
14393;BME280;7281;42.678;23.372;2022-12-20T05:14:08;96866.75;;;1.12;51.77
14393;BME280;7281;42.678;23.372;2022-12-20T05:16:35;96857.66;;;1.26;52.08
14393;BME280;7281;42.678;23.372;2022-12-20T05:19:05;96863.50;;;1.28;51.79
14393;BME280;7281;42.678;23.372;2022-12-20T05:21:38;96862.19;;;1.24;51.63
14393;BME280;7281;42.678;23.372;2022-12-20T05:24:24;96857.47;;;1.01;52.24
14393;BME280;7281;42.678;23.372;2022-12-20T05:27:22;96868.81;;;0.73;52.54
14393;BME280;7281;42.678;23.372;2022-12-20T05:29:49;96862.94;;;0.98;51.92
14393;BME280;7281;42.678;23.372;2022-12-20T05:32:16;96861.09;;;0.91;54.69
14393;BME280;7281;42.678;23.372;2022-12-20T05:34:43;96863.66;;;1.09;52.81
14393;BME280;7281;42.678;23.372;2022-12-20T05:37:09;96857.91;;;0.79;52.74
14393;BME280;7281;42.678;23.372;2022-12-20T05:39:38;96868.66;;;0.75;52.89
14393;BME280;7281;42.678;23.372;2022-12-20T05:42:11;96865.94;;;0.94;52.45
14393;BME280;7281;42.678;23.372;2022-12-20T05:44:38;96877.63;;;0.98;53.08
14393;BME280;7281;42.678;23.372;2022-12-20T05:47:07;96873.38;;;0.97;53.77
14393;BME280;7281;42.678;23.372;2022-12-20T05:49:35;96866.31;;;1.17;52.95
14393;BME280;7281;42.678;23.372;2022-12-20T05:52:05;96881.38;;;1.03;52.33
14393;BME280;7281;42.678;23.372;2022-12-20T05:54:34;96875.69;;;0.82;53.52
14393;BME280;7281;42.678;23.372;2022-12-20T05:57:05;96879.44;;;0.70;53.67
14393;BME280;7281;42.678;23.372;2022-12-20T05:59:35;96874.56;;;1.02;53.40
14393;BME280;7281;42.678;23.372;2022-12-20T06:02:05;96880.16;;;1.16;53.07
14393;BME280;7281;42.678;23.372;2022-12-20T06:04:33;96875.00;;;1.16;52.93
14393;BME280;7281;42.678;23.372;2022-12-20T06:07:05;96870.91;;;0.87;53.81
14393;BME280;7281;42.678;23.372;2022-12-20T06:09:32;96871.94;;;0.94;53.32
14393;BME280;7281;42.678;23.372;2022-12-20T06:12:04;96882.13;;;0.78;54.50
14393;BME280;7281;42.678;23.372;2022-12-20T06:14:33;96877.69;;;0.88;53.26
14393;BME280;7281;42.678;23.372;2022-12-20T06:17:01;96878.44;;;0.98;53.14
14393;BME280;7281;42.678;23.372;2022-12-20T06:19:29;96880.69;;;1.19;53.17
14393;BME280;7281;42.678;23.372;2022-12-20T06:21:57;96870.59;;;1.26;53.75
14393;BME280;7281;42.678;23.372;2022-12-20T06:24:33;96857.25;;;1.13;54.26
14393;BME280;7281;42.678;23.372;2022-12-20T06:27:01;96866.16;;;1.61;53.13
14393;BME280;7281;42.678;23.372;2022-12-20T06:29:29;96871.78;;;1.57;52.33
14393;BME280;7281;42.678;23.372;2022-12-20T06:32:07;96881.56;;;1.71;52.28
14393;BME280;7281;42.678;23.372;2022-12-20T06:34:34;96881.28;;;1.82;51.30
14393;BME280;7281;42.678;23.372;2022-12-20T06:37:01;96876.97;;;1.65;51.15
14393;BME280;7281;42.678;23.372;2022-12-20T06:39:31;96883.41;;;1.61;50.85
14393;BME280;7281;42.678;23.372;2022-12-20T06:42:01;96875.56;;;1.70;50.84
14393;BME280;7281;42.678;23.372;2022-12-20T06:44:28;96875.78;;;1.77;51.09
14393;BME280;7281;42.678;23.372;2022-12-20T06:46:55;96870.06;;;1.99;50.73
14393;BME280;7281;42.678;23.372;2022-12-20T06:49:22;96868.09;;;1.93;51.33
14393;BME280;7281;42.678;23.372;2022-12-20T06:51:50;96863.59;;;1.95;50.85
14393;BME280;7281;42.678;23.372;2022-12-20T06:54:21;96858.94;;;2.06;50.09
14393;BME280;7281;42.678;23.372;2022-12-20T06:56:49;96851.13;;;2.24;49.01
14393;BME280;7281;42.678;23.372;2022-12-20T06:59:16;96867.06;;;1.78;49.78
14393;BME280;7281;42.678;23.372;2022-12-20T07:01:43;96859.97;;;1.80;49.82
14393;BME280;7281;42.678;23.372;2022-12-20T07:04:10;96839.34;;;1.96;49.78
14393;BME280;7281;42.678;23.372;2022-12-20T07:06:37;96857.56;;;2.20;50.53
14393;BME280;7281;42.678;23.372;2022-12-20T07:09:04;96852.59;;;1.93;50.25
14393;BME280;7281;42.678;23.372;2022-12-20T07:11:31;96855.63;;;2.22;49.61
14393;BME280;7281;42.678;23.372;2022-12-20T07:13:58;96842.75;;;2.38;49.05
14393;BME280;7281;42.678;23.372;2022-12-20T07:16:25;96838.88;;;2.42;48.76
14393;BME280;7281;42.678;23.372;2022-12-20T07:18:52;96839.25;;;2.63;48.44
14393;BME280;7281;42.678;23.372;2022-12-20T07:21:20;96838.59;;;2.53;48.84
14393;BME280;7281;42.678;23.372;2022-12-20T07:23:47;96838.00;;;2.75;48.40
14393;BME280;7281;42.678;23.372;2022-12-20T07:26:14;96842.00;;;2.62;48.24
14393;BME280;7281;42.678;23.372;2022-12-20T07:28:41;96844.69;;;1.94;48.84
14393;BME280;7281;42.678;23.372;2022-12-20T07:31:08;96838.16;;;2.16;48.32
14393;BME280;7281;42.678;23.372;2022-12-20T07:33:35;96838.75;;;2.02;49.18
14393;BME280;7281;42.678;23.372;2022-12-20T07:36:05;96842.78;;;2.46;48.67
14393;BME280;7281;42.678;23.372;2022-12-20T07:38:33;96833.59;;;2.76;48.62
14393;BME280;7281;42.678;23.372;2022-12-20T07:41:06;96828.47;;;3.08;48.00
14393;BME280;7281;42.678;23.372;2022-12-20T07:43:34;96841.06;;;3.27;47.58
14393;BME280;7281;42.678;23.372;2022-12-20T07:46:03;96841.56;;;3.23;47.01
14393;BME280;7281;42.678;23.372;2022-12-20T07:48:31;96833.78;;;3.31;46.81
14393;BME280;7281;42.678;23.372;2022-12-20T07:54:11;96835.41;;;3.40;46.90
14393;BME280;7281;42.678;23.372;2022-12-20T07:56:43;96826.69;;;3.00;46.63
14393;BME280;7281;42.678;23.372;2022-12-20T07:59:13;96832.19;;;3.14;46.69
14393;BME280;7281;42.678;23.372;2022-12-20T08:01:42;96819.84;;;3.40;45.95
14393;BME280;7281;42.678;23.372;2022-12-20T08:04:14;96829.91;;;3.35;45.68
14393;BME280;7281;42.678;23.372;2022-12-20T08:06:43;96820.66;;;3.48;45.79
14393;BME280;7281;42.678;23.372;2022-12-20T08:09:10;96816.28;;;3.49;45.69
14393;BME280;7281;42.678;23.372;2022-12-20T08:11:40;96812.41;;;3.37;45.85
14393;BME280;7281;42.678;23.372;2022-12-20T08:14:09;96820.25;;;3.83;45.49
14393;BME280;7281;42.678;23.372;2022-12-20T08:16:37;96815.31;;;3.18;45.63
14393;BME280;7281;42.678;23.372;2022-12-20T08:19:04;96813.22;;;3.29;45.98
14393;BME280;7281;42.678;23.372;2022-12-20T08:21:31;96812.25;;;3.46;45.81
14393;BME280;7281;42.678;23.372;2022-12-20T08:23:58;96813.00;;;3.71;44.79
14393;BME280;7281;42.678;23.372;2022-12-20T08:26:25;96809.63;;;4.09;44.76
14393;BME280;7281;42.678;23.372;2022-12-20T08:28:53;96806.06;;;4.10;43.49
14393;BME280;7281;42.678;23.372;2022-12-20T08:31:20;96804.03;;;4.28;43.51
14393;BME280;7281;42.678;23.372;2022-12-20T08:33:48;96796.31;;;4.65;43.04
14393;BME280;7281;42.678;23.372;2022-12-20T08:36:15;96789.78;;;4.77;42.53
14393;BME280;7281;42.678;23.372;2022-12-20T08:38:41;96793.44;;;5.05;42.14
14393;BME280;7281;42.678;23.372;2022-12-20T08:41:11;96790.69;;;5.59;42.08
14393;BME280;7281;42.678;23.372;2022-12-20T08:43:39;96783.88;;;6.16;40.14
14393;BME280;7281;42.678;23.372;2022-12-20T08:46:07;96780.69;;;6.71;39.36
14393;BME280;7281;42.678;23.372;2022-12-20T08:48:35;96778.28;;;6.90;38.27
14393;BME280;7281;42.678;23.372;2022-12-20T08:51:04;96778.44;;;7.59;37.33
14393;BME280;7281;42.678;23.372;2022-12-20T08:53:31;96771.03;;;7.35;36.69
14393;BME280;7281;42.678;23.372;2022-12-20T08:56:11;96770.47;;;7.11;37.62
14393;BME280;7281;42.678;23.372;2022-12-20T08:58:39;96775.16;;;7.01;37.87
14393;BME280;7281;42.678;23.372;2022-12-20T09:01:09;96778.13;;;7.19;38.15
14393;BME280;7281;42.678;23.372;2022-12-20T09:03:38;96770.69;;;6.95;38.54
14393;BME280;7281;42.678;23.372;2022-12-20T09:06:18;96759.78;;;6.85;38.33
14393;BME280;7281;42.678;23.372;2022-12-20T09:08:45;96754.72;;;6.98;37.69
14393;BME280;7281;42.678;23.372;2022-12-20T09:11:22;96752.44;;;7.16;38.56
14393;BME280;7281;42.678;23.372;2022-12-20T09:13:51;96752.91;;;7.27;38.40
14393;BME280;7281;42.678;23.372;2022-12-20T09:16:20;96749.97;;;6.66;38.34
14393;BME280;7281;42.678;23.372;2022-12-20T09:18:49;96745.66;;;7.22;37.96
14393;BME280;7281;42.678;23.372;2022-12-20T09:21:17;96737.28;;;7.95;36.30
14393;BME280;7281;42.678;23.372;2022-12-20T09:23:45;96728.63;;;7.54;35.23
14393;BME280;7281;42.678;23.372;2022-12-20T09:26:14;96736.13;;;7.36;36.05
14393;BME280;7281;42.678;23.372;2022-12-20T09:28:42;96731.41;;;7.52;36.04
14393;BME280;7281;42.678;23.372;2022-12-20T09:31:12;96717.06;;;8.10;35.43
14393;BME280;7281;42.678;23.372;2022-12-20T09:33:40;96726.91;;;8.08;34.85
14393;BME280;7281;42.678;23.372;2022-12-20T09:36:12;96714.34;;;8.31;33.93
14393;BME280;7281;42.678;23.372;2022-12-20T09:38:39;96726.72;;;8.16;34.92
14393;BME280;7281;42.678;23.372;2022-12-20T09:41:08;96713.00;;;8.48;34.10
14393;BME280;7281;42.678;23.372;2022-12-20T09:43:48;96705.63;;;8.17;34.02
14393;BME280;7281;42.678;23.372;2022-12-20T09:46:15;96700.47;;;8.24;34.85
14393;BME280;7281;42.678;23.372;2022-12-20T09:48:44;96699.28;;;8.33;34.95
14393;BME280;7281;42.678;23.372;2022-12-20T09:54:43;96693.94;;;8.80;33.47
14393;BME280;7281;42.678;23.372;2022-12-20T10:00:14;96688.72;;;8.00;33.61
14393;BME280;7281;42.678;23.372;2022-12-20T10:02:41;96689.47;;;7.88;34.79
14393;BME280;7281;42.678;23.372;2022-12-20T10:05:35;96677.09;;;8.16;34.27
14393;BME280;7281;42.678;23.372;2022-12-20T10:08:24;96670.25;;;8.08;34.14
14393;BME280;7281;42.678;23.372;2022-12-20T10:11:04;96657.94;;;7.89;33.76
14393;BME280;7281;42.678;23.372;2022-12-20T10:13:46;96661.91;;;8.26;33.52
14393;BME280;7281;42.678;23.372;2022-12-20T10:16:51;96658.28;;;8.27;33.14
14393;BME280;7281;42.678;23.372;2022-12-20T10:22:19;96634.53;;;8.22;33.82
14393;BME280;7281;42.678;23.372;2022-12-20T10:24:59;96631.25;;;7.94;33.80
14393;BME280;7281;42.678;23.372;2022-12-20T10:27:27;96624.25;;;8.07;34.25
14393;BME280;7281;42.678;23.372;2022-12-20T10:29:54;96613.53;;;7.70;33.51
14393;BME280;7281;42.678;23.372;2022-12-20T10:32:22;96605.28;;;7.66;33.71
14393;BME280;7281;42.678;23.372;2022-12-20T10:37:37;96583.28;;;7.41;34.94
14393;BME280;7281;42.678;23.372;2022-12-20T10:40:25;96589.19;;;7.63;34.64
14393;BME280;7281;42.678;23.372;2022-12-20T10:43:18;96583.69;;;7.45;35.09
14393;BME280;7281;42.678;23.372;2022-12-20T10:46:06;96579.59;;;7.70;34.01
14393;BME280;7281;42.678;23.372;2022-12-20T10:48:39;96576.28;;;7.01;35.48
14393;BME280;7281;42.678;23.372;2022-12-20T10:53:54;96564.00;;;7.29;35.04
14393;BME280;7281;42.678;23.372;2022-12-20T10:56:33;96555.22;;;7.43;33.85
14393;BME280;7281;42.678;23.372;2022-12-20T10:59:24;96558.69;;;7.09;35.91
14393;BME280;7281;42.678;23.372;2022-12-20T11:01:55;96550.94;;;6.54;36.11
14393;BME280;7281;42.678;23.372;2022-12-20T11:04:33;96555.00;;;6.97;35.88
14393;BME280;7281;42.678;23.372;2022-12-20T11:07:03;96553.44;;;7.03;35.17
14393;BME280;7281;42.678;23.372;2022-12-20T11:09:58;96542.59;;;6.99;35.58
14393;BME280;7281;42.678;23.372;2022-12-20T11:12:26;96537.38;;;6.99;34.83
14393;BME280;7281;42.678;23.372;2022-12-20T11:15:09;96547.72;;;7.21;35.23
14393;BME280;7281;42.678;23.372;2022-12-20T11:17:40;96538.94;;;6.87;34.82
14393;BME280;7281;42.678;23.372;2022-12-20T11:34:12;96521.97;;;7.58;34.57
14393;BME280;7281;42.678;23.372;2022-12-20T11:36:51;96514.31;;;7.50;33.99
14393;BME280;7281;42.678;23.372;2022-12-20T11:39:33;96516.56;;;7.79;34.52
14393;BME280;7281;42.678;23.372;2022-12-20T11:45:17;96498.31;;;7.73;32.77
14393;BME280;7281;42.678;23.372;2022-12-20T11:50:46;96496.72;;;7.98;32.23
14393;BME280;7281;42.678;23.372;2022-12-20T11:56:31;96485.97;;;9.42;31.20
14393;BME280;7281;42.678;23.372;2022-12-20T11:59:34;96475.59;;;9.91;29.83
14393;BME280;7281;42.678;23.372;2022-12-20T12:02:09;96458.22;;;10.03;28.86
14393;BME280;7281;42.678;23.372;2022-12-20T12:04:53;96464.88;;;9.74;29.48
14393;BME280;7281;42.678;23.372;2022-12-20T12:07:30;96468.88;;;10.33;29.76
14393;BME280;7281;42.678;23.372;2022-12-20T12:18:02;96461.34;;;10.18;28.54
14393;BME280;7281;42.678;23.372;2022-12-20T12:23:05;96454.91;;;10.57;27.76
14393;BME280;7281;42.678;23.372;2022-12-20T12:25:38;96432.72;;;10.95;27.44
14393;BME280;7281;42.678;23.372;2022-12-20T12:28:10;96447.41;;;11.14;29.27
14393;BME280;7281;42.678;23.372;2022-12-20T12:30:41;96447.56;;;11.01;27.99
14393;BME280;7281;42.678;23.372;2022-12-20T12:33:17;96453.66;;;11.32;27.20
14393;BME280;7281;42.678;23.372;2022-12-20T12:45:00;96434.06;;;14.70;22.95
14393;BME280;7281;42.678;23.372;2022-12-20T12:47:46;96420.81;;;15.78;22.37
14393;BME280;7281;42.678;23.372;2022-12-20T12:50:24;96425.94;;;16.21;22.34
14393;BME280;7281;42.678;23.372;2022-12-20T12:52:55;96418.84;;;16.63;21.45
14393;BME280;7281;42.678;23.372;2022-12-20T12:55:41;96417.88;;;16.06;21.61
14393;BME280;7281;42.678;23.372;2022-12-20T13:16:44;96383.56;;;16.11;20.87
14393;BME280;7281;42.678;23.372;2022-12-20T13:19:34;96393.28;;;14.39;22.69
14393;BME280;7281;42.678;23.372;2022-12-20T13:24:51;96401.22;;;12.19;24.60
14393;BME280;7281;42.678;23.372;2022-12-20T13:38:04;96415.97;;;9.37;28.39
14393;BME280;7281;42.678;23.372;2022-12-20T13:43:06;96409.50;;;8.64;29.14
14393;BME280;7281;42.678;23.372;2022-12-20T13:45:38;96411.16;;;8.46;29.69
14393;BME280;7281;42.678;23.372;2022-12-20T13:48:14;96413.19;;;8.31;29.12
14393;BME280;7281;42.678;23.372;2022-12-20T13:50:50;96424.03;;;8.21;29.91
14393;BME280;7281;42.678;23.372;2022-12-20T13:53:25;96419.38;;;8.23;29.22
14393;BME280;7281;42.678;23.372;2022-12-20T13:55:53;96416.03;;;7.90;29.70
14393;BME280;7281;42.678;23.372;2022-12-20T13:58:46;96418.03;;;8.01;28.85
14393;BME280;7281;42.678;23.372;2022-12-20T14:01:22;96414.00;;;7.92;30.21
14393;BME280;7281;42.678;23.372;2022-12-20T14:03:51;96409.59;;;7.73;29.54
14393;BME280;7281;42.678;23.372;2022-12-20T14:06:20;96411.41;;;7.66;29.94
14393;BME280;7281;42.678;23.372;2022-12-20T14:08:53;96404.38;;;7.79;29.72
14393;BME280;7281;42.678;23.372;2022-12-20T14:11:23;96389.31;;;7.49;30.57
14393;BME280;7281;42.678;23.372;2022-12-20T14:14:00;96400.75;;;7.35;30.24
14393;BME280;7281;42.678;23.372;2022-12-20T14:16:31;96395.94;;;7.32;30.70
14393;BME280;7281;42.678;23.372;2022-12-20T14:19:05;96396.72;;;7.45;31.35
14393;BME280;7281;42.678;23.372;2022-12-20T14:21:37;96392.94;;;7.48;30.99
14393;BME280;7281;42.678;23.372;2022-12-20T14:24:16;96396.75;;;7.39;31.11
14393;BME280;7281;42.678;23.372;2022-12-20T14:26:45;96393.06;;;7.13;31.86
14393;BME280;7281;42.678;23.372;2022-12-20T14:29:18;96397.81;;;6.90;32.07
14393;BME280;7281;42.678;23.372;2022-12-20T14:31:46;96396.72;;;7.26;31.36
14393;BME280;7281;42.678;23.372;2022-12-20T14:34:21;96392.69;;;7.23;31.31
14393;BME280;7281;42.678;23.372;2022-12-20T14:37:27;96394.25;;;7.04;32.20
14393;BME280;7281;42.678;23.372;2022-12-20T14:42:26;96384.25;;;7.14;31.74
14393;BME280;7281;42.678;23.372;2022-12-20T14:50:27;96397.41;;;6.93;32.51
14393;BME280;7281;42.678;23.372;2022-12-20T14:52:55;96386.41;;;6.91;32.19
14393;BME280;7281;42.678;23.372;2022-12-20T14:55:31;96375.03;;;6.52;33.03
14393;BME280;7281;42.678;23.372;2022-12-20T14:57:58;96387.84;;;6.53;33.82
14393;BME280;7281;42.678;23.372;2022-12-20T15:00:31;96381.50;;;6.69;33.07
14393;BME280;7281;42.678;23.372;2022-12-20T15:10:48;96378.03;;;6.49;34.44
14393;BME280;7281;42.678;23.372;2022-12-20T15:13:18;96372.72;;;6.29;34.39
14393;BME280;7281;42.678;23.372;2022-12-20T15:15:46;96378.16;;;6.34;35.00
14393;BME280;7281;42.678;23.372;2022-12-20T15:18:15;96369.72;;;6.26;34.88
14393;BME280;7281;42.678;23.372;2022-12-20T15:20:44;96380.75;;;6.34;34.85
14393;BME280;7281;42.678;23.372;2022-12-20T15:23:15;96383.91;;;6.23;35.21
14393;BME280;7281;42.678;23.372;2022-12-20T15:25:42;96382.16;;;5.96;36.23
14393;BME280;7281;42.678;23.372;2022-12-20T15:28:16;96385.59;;;6.03;36.67
14393;BME280;7281;42.678;23.372;2022-12-20T15:30:45;96393.44;;;5.82;36.80
14393;BME280;7281;42.678;23.372;2022-12-20T15:33:16;96374.59;;;5.80;36.50
14393;BME280;7281;42.678;23.372;2022-12-20T15:35:43;96379.31;;;5.91;36.98
14393;BME280;7281;42.678;23.372;2022-12-20T15:38:13;96387.28;;;5.89;36.67
14393;BME280;7281;42.678;23.372;2022-12-20T15:40:43;96378.09;;;5.87;36.56
14393;BME280;7281;42.678;23.372;2022-12-20T15:43:12;96378.50;;;5.90;36.86
14393;BME280;7281;42.678;23.372;2022-12-20T15:45:44;96384.00;;;5.81;36.86
14393;BME280;7281;42.678;23.372;2022-12-20T15:48:14;96385.19;;;5.78;37.13
14393;BME280;7281;42.678;23.372;2022-12-20T15:50:48;96381.97;;;5.76;37.64